createdAt,value
2019-03-01T00:01:25.516Z,55.30
2019-03-01T00:03:58.559Z,55.30
2019-03-01T00:06:37.204Z,55.30
2019-03-01T00:09:31.013Z,54.90
2019-03-01T00:12:20.024Z,54.70
2019-03-01T00:15:16.351Z,54.20
2019-03-01T00:17:57.759Z,55.20
2019-03-01T00:20:54.635Z,56.00
2019-03-01T00:23:42.631Z,55.90
2019-03-01T00:26:33.474Z,55.70
2019-03-01T00:29:28.767Z,55.90
2019-03-01T00:32:10.019Z,54.80
2019-03-01T00:34:51.379Z,55.10
2019-03-01T00:37:44.638Z,55.40
2019-03-01T00:40:26.264Z,55.80
2019-03-01T00:43:10.598Z,54.90
2019-03-01T00:45:40.154Z,55.10
2019-03-01T00:48:09.799Z,56.20
2019-03-01T00:50:39.339Z,55.80
2019-03-01T00:53:11.775Z,56.70
2019-03-01T00:55:41.391Z,56.40
2019-03-01T00:58:11.213Z,55.60
2019-03-01T01:00:44.276Z,56.10
2019-03-01T01:03:13.777Z,57.20
2019-03-01T01:05:43.748Z,55.60
2019-03-01T01:08:13.705Z,56.80
2019-03-01T01:10:44.192Z,57.00
2019-03-01T01:13:13.679Z,56.60
2019-03-01T01:15:43.218Z,56.90
2019-03-01T01:18:12.715Z,57.40
2019-03-01T01:20:42.266Z,56.70
2019-03-01T01:23:12.390Z,57.70
2019-03-01T01:25:42.293Z,58.60
2019-03-01T01:28:11.979Z,59.00
2019-03-01T01:30:41.483Z,58.50
2019-03-01T01:33:10.936Z,60.30
2019-03-01T01:35:40.434Z,60.20
2019-03-01T01:38:10.091Z,60.70
2019-03-01T01:40:39.515Z,63.50
2019-03-01T01:43:08.961Z,62.80
2019-03-01T01:45:38.567Z,65.90
2019-03-01T01:48:08.147Z,65.00
2019-03-01T01:50:37.579Z,69.20
2019-03-01T01:53:07.571Z,68.80
2019-03-01T01:55:37.207Z,67.60
2019-03-01T01:58:07.301Z,70.30
2019-03-01T02:00:37.112Z,67.70
2019-03-01T02:03:06.667Z,68.20
2019-03-01T02:05:36.100Z,71.70
2019-03-01T02:08:07.122Z,67.70
2019-03-01T02:10:37.059Z,71.50
2019-03-01T02:13:06.684Z,68.40
2019-03-01T02:15:36.122Z,67.40
2019-03-01T02:18:05.685Z,67.60
2019-03-01T02:20:35.439Z,70.50
2019-03-01T02:23:05.211Z,67.80
2019-03-01T02:25:34.734Z,68.60
2019-03-01T02:28:04.305Z,70.80
2019-03-01T02:30:43.144Z,68.50
2019-03-01T02:33:12.643Z,69.90
2019-03-01T02:35:42.250Z,71.50
2019-03-01T02:38:12.118Z,71.80
2019-03-01T02:40:41.932Z,73.20
2019-03-01T02:43:12.648Z,73.50
2019-03-01T02:45:42.256Z,74.90
2019-03-01T02:48:11.751Z,75.80
2019-03-01T02:50:41.567Z,74.60
2019-03-01T02:53:11.427Z,75.70
2019-03-01T02:55:41.700Z,74.90
2019-03-01T02:58:11.130Z,75.70
2019-03-01T03:00:40.656Z,75.90
2019-03-01T03:03:10.149Z,73.20
2019-03-01T03:05:41.296Z,76.90
2019-03-01T03:08:11.601Z,75.00
2019-03-01T03:10:41.401Z,74.70
2019-03-01T03:13:11.092Z,70.40
2019-03-01T03:15:45.660Z,73.00
2019-03-01T03:18:15.169Z,71.80
2019-03-01T03:20:45.025Z,74.70
2019-03-01T03:23:14.722Z,71.10
2019-03-01T03:25:44.217Z,74.50
2019-03-01T03:28:13.836Z,75.10
2019-03-01T03:30:43.360Z,77.30
2019-03-01T03:33:12.856Z,75.80
2019-03-01T03:35:42.301Z,77.20
2019-03-01T03:38:12.088Z,76.00
2019-03-01T03:40:41.796Z,77.70
2019-03-01T03:43:23.690Z,74.90
2019-03-01T03:46:05.712Z,76.10
2019-03-01T03:48:36.310Z,76.40
2019-03-01T03:51:06.412Z,74.90
2019-03-01T03:53:55.220Z,75.50
2019-03-01T03:56:24.935Z,78.00
2019-03-01T03:58:54.857Z,77.50
2019-03-01T04:01:24.912Z,76.80
2019-03-01T04:04:13.694Z,76.40
2019-03-01T04:07:02.856Z,76.10
2019-03-01T04:09:32.356Z,71.50
2019-03-01T04:12:01.909Z,70.60
2019-03-01T04:14:31.442Z,76.60
2019-03-01T04:17:00.944Z,75.30
2019-03-01T04:19:30.509Z,78.10
2019-03-01T04:22:00.497Z,75.10
2019-03-01T04:24:30.004Z,74.00
2019-03-01T04:27:00.476Z,79.10
2019-03-01T04:29:30.231Z,77.00
2019-03-01T04:31:59.824Z,78.10
2019-03-01T04:34:29.283Z,78.50
2019-03-01T04:36:58.780Z,78.40
2019-03-01T04:39:28.268Z,77.60
2019-03-01T04:41:57.772Z,78.90
2019-03-01T04:44:27.593Z,78.40
2019-03-01T04:46:57.026Z,78.90
2019-03-01T04:49:26.458Z,78.90
2019-03-01T04:51:56.031Z,80.20
2019-03-01T04:54:25.462Z,82.40
2019-03-01T04:56:55.267Z,82.40
2019-03-01T04:59:25.071Z,80.40
2019-03-01T05:01:54.576Z,82.20
2019-03-01T05:04:24.087Z,81.40
2019-03-01T05:06:54.067Z,80.00
2019-03-01T05:09:23.839Z,81.30
2019-03-01T05:11:53.635Z,81.80
2019-03-01T05:14:23.155Z,82.10
2019-03-01T05:16:52.947Z,80.20
2019-03-01T05:19:23.792Z,81.50
2019-03-01T05:21:53.615Z,82.60
2019-03-01T05:24:23.056Z,79.90
2019-03-01T05:26:52.479Z,80.50
2019-03-01T05:29:22.378Z,82.90
2019-03-01T05:31:51.821Z,82.90
2019-03-01T05:34:21.247Z,81.70
2019-03-01T05:36:51.035Z,85.60
2019-03-01T05:39:20.464Z,85.90
2019-03-01T05:41:50.251Z,83.20
2019-03-01T05:44:19.720Z,82.20
2019-03-01T05:46:50.187Z,83.10
2019-03-01T05:49:19.923Z,81.70
2019-03-01T05:51:50.143Z,81.40
2019-03-01T05:54:19.890Z,83.00
2019-03-01T05:56:49.439Z,80.40
2019-03-01T05:59:22.915Z,87.90
2019-03-01T06:01:58.215Z,82.30
2019-03-01T06:04:31.072Z,84.10
2019-03-01T06:07:15.363Z,82.40
2019-03-01T06:10:02.805Z,86.50
2019-03-01T06:12:59.715Z,87.80
2019-03-01T06:15:50.367Z,82.20
2019-03-01T06:18:41.034Z,86.20
2019-03-01T06:21:22.175Z,83.40
2019-03-01T06:24:21.851Z,81.60
2019-03-01T06:27:04.550Z,86.70
2019-03-01T06:29:56.345Z,85.30
2019-03-01T06:32:37.643Z,84.70
2019-03-01T06:35:31.315Z,83.10
2019-03-01T06:38:50.557Z,85.00
2019-03-01T06:41:27.720Z,84.40
2019-03-01T06:44:03.307Z,82.40
2019-03-01T06:46:35.871Z,80.50
2019-03-01T06:49:07.219Z,82.60
2019-03-01T06:51:36.759Z,80.80
2019-03-01T06:54:06.330Z,80.40
2019-03-01T06:56:35.760Z,83.80
2019-03-01T06:59:06.363Z,81.80
2019-03-01T07:01:36.922Z,80.60
2019-03-01T07:04:07.143Z,81.40
2019-03-01T07:06:36.666Z,81.60
2019-03-01T07:09:07.290Z,83.00
2019-03-01T07:11:36.733Z,79.50
2019-03-01T07:14:06.329Z,79.90
2019-03-01T07:16:35.911Z,80.10
2019-03-01T07:19:05.338Z,79.70
2019-03-01T07:21:35.048Z,81.80
2019-03-01T07:24:05.592Z,80.40
2019-03-01T07:26:35.151Z,81.70
2019-03-01T07:29:04.656Z,82.00
2019-03-01T07:31:34.162Z,80.90
2019-03-01T07:34:03.698Z,81.50
2019-03-01T07:36:33.287Z,81.80
2019-03-01T07:39:03.499Z,80.70
2019-03-01T07:41:33.097Z,80.80
2019-03-01T07:44:03.091Z,81.50
2019-03-01T07:46:32.519Z,81.10
2019-03-01T07:49:02.208Z,81.20
2019-03-01T07:51:32.120Z,81.00
2019-03-01T07:54:01.630Z,79.60
2019-03-01T07:56:31.215Z,79.70
2019-03-01T07:59:01.114Z,80.10
2019-03-01T08:01:30.704Z,81.20
2019-03-01T08:04:00.215Z,81.70
2019-03-01T08:06:29.815Z,80.80
2019-03-01T08:08:59.250Z,81.20
2019-03-01T08:11:31.788Z,80.40
2019-03-01T08:14:00.255Z,81.90
2019-03-01T08:16:30.051Z,82.00
2019-03-01T08:18:59.552Z,81.00
2019-03-01T08:21:29.211Z,80.10
2019-03-01T08:23:59.076Z,79.40
2019-03-01T08:26:30.803Z,78.50
2019-03-01T08:29:00.291Z,80.60
2019-03-01T08:31:29.731Z,79.60
2019-03-01T08:33:59.171Z,78.90
2019-03-01T08:36:29.163Z,79.70
2019-03-01T08:39:00.783Z,80.50
2019-03-01T08:41:29.919Z,79.80
2019-03-01T08:43:59.389Z,79.50
2019-03-01T08:46:29.159Z,79.60
2019-03-01T08:48:59.152Z,78.60
2019-03-01T08:51:29.529Z,79.30
2019-03-01T08:53:59.305Z,79.90
2019-03-01T08:56:29.125Z,79.00
2019-03-01T08:58:58.651Z,79.20
2019-03-01T09:01:28.319Z,78.30
2019-03-01T09:04:06.711Z,78.90
2019-03-01T09:06:36.216Z,78.00
2019-03-01T09:09:08.616Z,78.30
2019-03-01T09:11:41.740Z,79.20
2019-03-01T09:14:09.843Z,79.50
2019-03-01T09:16:40.922Z,78.90
2019-03-01T09:19:11.754Z,78.40
2019-03-01T09:21:44.245Z,78.40
2019-03-01T09:24:12.467Z,78.70
2019-03-01T09:26:42.075Z,78.30
2019-03-01T09:29:13.028Z,77.60
2019-03-01T09:31:42.999Z,76.90
2019-03-01T09:34:14.599Z,76.20
2019-03-01T09:36:46.176Z,74.90
2019-03-01T09:39:18.103Z,75.30
2019-03-01T09:41:46.952Z,75.70
2019-03-01T09:44:16.438Z,77.10
2019-03-01T09:46:45.938Z,77.20
2019-03-01T09:49:16.064Z,78.30
2019-03-01T09:51:49.154Z,79.10
2019-03-01T09:54:16.711Z,79.80
2019-03-01T09:56:47.243Z,81.20
2019-03-01T09:59:17.228Z,81.50
2019-03-01T10:01:46.981Z,83.50
2019-03-01T10:04:16.739Z,84.30
2019-03-01T10:06:46.230Z,85.30
2019-03-01T10:09:15.651Z,85.00
2019-03-01T10:11:45.508Z,85.40
2019-03-01T10:14:14.935Z,83.40
2019-03-01T10:16:44.439Z,84.90
2019-03-01T10:19:13.891Z,84.80
2019-03-01T10:21:43.480Z,84.60
2019-03-01T10:24:13.235Z,83.30
2019-03-01T10:26:43.216Z,86.10
2019-03-01T10:29:13.008Z,86.90
2019-03-01T10:31:42.678Z,85.70
2019-03-01T10:34:12.142Z,88.90
2019-03-01T10:36:43.593Z,87.80
2019-03-01T10:39:14.813Z,89.80
2019-03-01T10:41:48.704Z,90.10
2019-03-01T10:44:18.532Z,89.50
2019-03-01T10:46:48.681Z,90.70
2019-03-01T10:49:18.137Z,91.50
2019-03-01T10:51:47.830Z,91.50
2019-03-01T10:54:17.349Z,91.70
2019-03-01T10:56:47.155Z,91.20
2019-03-01T10:59:17.271Z,90.60
2019-03-01T11:01:46.859Z,90.40
2019-03-01T11:04:16.688Z,90.20
2019-03-01T11:06:46.187Z,89.30
2019-03-01T11:09:15.979Z,88.40
2019-03-01T11:11:45.936Z,87.30
2019-03-01T11:14:15.441Z,85.30
2019-03-01T11:16:44.883Z,84.10
2019-03-01T11:19:14.715Z,83.30
2019-03-01T11:21:44.587Z,80.90
2019-03-01T11:24:14.903Z,79.70
2019-03-01T11:26:45.104Z,79.30
2019-03-01T11:29:15.027Z,78.10
2019-03-01T11:31:44.526Z,74.20
2019-03-01T11:34:14.305Z,74.20
2019-03-01T11:36:43.727Z,72.30
2019-03-01T11:39:14.263Z,69.30
2019-03-01T11:41:44.060Z,69.50
2019-03-01T11:44:18.564Z,71.30
2019-03-01T11:46:48.519Z,72.10
2019-03-01T11:49:38.995Z,72.70
2019-03-01T11:52:08.519Z,73.40
2019-03-01T11:54:37.967Z,72.90
2019-03-01T11:57:07.599Z,72.80
2019-03-01T11:59:37.363Z,72.50
2019-03-01T12:02:06.915Z,73.70
2019-03-01T12:04:36.419Z,74.70
2019-03-01T12:07:06.123Z,74.40
2019-03-01T12:09:35.623Z,74.50
2019-03-01T12:12:05.503Z,75.60
2019-03-01T12:14:37.191Z,75.00
2019-03-01T12:17:06.791Z,75.40
2019-03-01T12:19:36.356Z,74.60
2019-03-01T12:22:05.842Z,75.00
2019-03-01T12:24:35.272Z,75.00
2019-03-01T12:27:05.893Z,75.30
2019-03-01T12:29:35.789Z,76.10
2019-03-01T12:32:05.353Z,78.80
2019-03-01T12:34:34.779Z,75.90
2019-03-01T12:37:04.374Z,69.10
2019-03-01T12:39:35.392Z,67.60
2019-03-01T12:42:05.024Z,68.20
2019-03-01T12:44:34.742Z,68.50
2019-03-01T12:47:04.243Z,68.80
2019-03-01T12:49:33.790Z,69.80
2019-03-01T12:52:03.307Z,70.30
2019-03-01T12:54:32.748Z,71.60
2019-03-01T12:57:02.728Z,72.50
2019-03-01T12:59:32.579Z,73.20
2019-03-01T13:02:02.068Z,74.50
2019-03-01T13:04:31.827Z,75.60
2019-03-01T13:07:01.359Z,76.00
2019-03-01T13:09:30.856Z,76.60
2019-03-01T13:12:00.355Z,76.20
2019-03-01T13:14:29.924Z,75.70
2019-03-01T13:17:01.777Z,75.80
2019-03-01T13:19:30.635Z,76.00
2019-03-01T13:22:00.103Z,75.40
2019-03-01T13:24:29.815Z,75.70
2019-03-01T13:26:59.243Z,76.00
2019-03-01T13:29:28.864Z,76.10
2019-03-01T13:31:58.744Z,75.80
2019-03-01T13:34:28.240Z,76.20
2019-03-01T13:36:58.180Z,76.20
2019-03-01T13:39:48.694Z,78.00
2019-03-01T13:42:18.388Z,78.70
2019-03-01T13:44:47.968Z,79.20
2019-03-01T13:47:17.771Z,79.40
2019-03-01T13:49:47.227Z,80.20
2019-03-01T13:52:16.668Z,80.20
2019-03-01T13:54:46.426Z,80.60
2019-03-01T13:57:22.197Z,80.00
2019-03-01T13:59:51.703Z,79.10
2019-03-01T14:02:21.593Z,78.00
2019-03-01T14:04:51.068Z,77.00
2019-03-01T14:07:20.691Z,77.10
2019-03-01T14:09:50.559Z,77.30
2019-03-01T14:12:20.253Z,79.90
2019-03-01T14:14:49.711Z,76.70
2019-03-01T14:17:21.127Z,76.30
2019-03-01T14:19:50.795Z,75.60
2019-03-01T14:22:21.376Z,72.30
2019-03-01T14:24:50.806Z,64.60
2019-03-01T14:27:20.479Z,56.80
2019-03-01T14:29:53.610Z,57.10
2019-03-01T14:32:21.914Z,58.40
2019-03-01T14:34:51.836Z,59.00
2019-03-01T14:37:22.316Z,59.40
2019-03-01T14:39:52.124Z,58.90
2019-03-01T14:42:21.799Z,59.50
2019-03-01T14:44:51.763Z,59.80
2019-03-01T14:47:21.207Z,61.10
2019-03-01T14:49:53.998Z,62.60
2019-03-01T14:52:22.714Z,64.30
2019-03-01T14:54:52.712Z,63.70
2019-03-01T14:57:24.603Z,63.20
2019-03-01T15:00:00.243Z,63.70
2019-03-01T15:02:40.653Z,63.90
2019-03-01T15:05:17.688Z,64.30
2019-03-01T15:07:41.515Z,63.20
2019-03-01T15:10:13.825Z,63.50
2019-03-01T15:12:43.499Z,63.70
2019-03-01T15:15:13.815Z,63.90
2019-03-01T15:17:44.681Z,64.50
2019-03-01T15:20:17.258Z,65.10
2019-03-01T15:22:48.685Z,66.50
2019-03-01T15:25:18.507Z,67.20
2019-03-01T15:27:49.999Z,67.80
2019-03-01T15:30:19.727Z,69.00
2019-03-01T15:32:49.625Z,69.30
2019-03-01T15:35:22.517Z,70.40
2019-03-01T15:38:01.267Z,70.80
2019-03-01T15:40:31.469Z,70.90
2019-03-01T15:43:02.005Z,71.30
2019-03-01T15:45:31.622Z,71.40
2019-03-01T15:48:01.881Z,71.40
2019-03-01T15:50:32.752Z,70.60
2019-03-01T15:53:02.358Z,70.70
2019-03-01T15:55:31.863Z,70.40
2019-03-01T15:58:01.335Z,70.00
2019-03-01T16:00:31.423Z,69.50
2019-03-01T16:03:01.206Z,69.00
2019-03-01T16:05:34.302Z,69.20
2019-03-01T16:08:05.448Z,69.20
2019-03-01T16:10:36.187Z,69.00
2019-03-01T16:13:08.343Z,69.40
2019-03-01T16:15:38.875Z,69.50
2019-03-01T16:18:08.814Z,69.80
2019-03-01T16:20:38.371Z,69.90
2019-03-01T16:23:08.076Z,69.90
2019-03-01T16:25:37.503Z,70.40
2019-03-01T16:28:09.305Z,70.70
2019-03-01T16:30:38.802Z,70.50
2019-03-01T16:33:08.332Z,71.00
2019-03-01T16:35:38.359Z,71.50
2019-03-01T16:38:08.107Z,71.90
2019-03-01T16:40:38.224Z,72.80
2019-03-01T16:43:07.726Z,74.10
2019-03-01T16:45:37.508Z,74.10
2019-03-01T16:48:07.299Z,74.20
2019-03-01T16:50:36.902Z,75.40
2019-03-01T16:53:06.981Z,76.10
2019-03-01T16:55:36.822Z,76.00
2019-03-01T16:58:07.285Z,76.60
2019-03-01T17:00:37.215Z,76.70
2019-03-01T17:03:09.875Z,76.70
2019-03-01T17:05:39.871Z,76.90
2019-03-01T17:08:10.505Z,77.20
2019-03-01T17:10:40.363Z,76.80
2019-03-01T17:13:10.377Z,77.50
2019-03-01T17:15:40.111Z,77.00
2019-03-01T17:18:12.206Z,76.90
2019-03-01T17:20:40.948Z,77.30
2019-03-01T17:23:11.438Z,76.90
2019-03-01T17:25:41.035Z,77.50
2019-03-01T17:28:10.534Z,77.10
2019-03-01T17:30:40.688Z,76.90
2019-03-01T17:33:12.754Z,76.60
2019-03-01T17:35:41.849Z,76.40
2019-03-01T17:38:12.115Z,76.10
2019-03-01T17:40:42.028Z,76.00
2019-03-01T17:43:11.702Z,76.80
2019-03-01T17:45:41.388Z,76.90
2019-03-01T17:48:10.828Z,77.10
2019-03-01T17:50:41.724Z,77.10
2019-03-01T17:53:11.593Z,77.80
2019-03-01T17:55:41.243Z,77.60
2019-03-01T17:58:10.766Z,78.50
2019-03-01T18:00:41.703Z,78.30
2019-03-01T18:03:11.744Z,78.30
2019-03-01T18:05:41.604Z,78.90
2019-03-01T18:08:13.948Z,78.70
2019-03-01T18:10:43.212Z,78.60
2019-03-01T18:13:12.718Z,79.20
2019-03-01T18:15:48.467Z,79.40
2019-03-01T18:18:17.927Z,79.10
2019-03-01T18:20:47.784Z,80.70
2019-03-01T18:23:17.715Z,80.20
2019-03-01T18:25:47.211Z,80.50
2019-03-01T18:28:18.241Z,80.30
2019-03-01T18:30:47.766Z,81.00
2019-03-01T18:33:20.865Z,80.90
2019-03-01T18:35:48.995Z,80.60
2019-03-01T18:38:19.419Z,80.60
2019-03-01T18:40:51.783Z,80.50
2019-03-01T18:43:21.437Z,80.20
2019-03-01T18:45:50.968Z,80.10
2019-03-01T18:48:21.517Z,80.30
2019-03-01T18:50:55.344Z,80.00
2019-03-01T18:53:28.448Z,79.90
2019-03-01T18:55:56.116Z,80.10
2019-03-01T18:58:25.644Z,80.00
2019-03-01T19:00:55.214Z,79.70
2019-03-01T19:03:24.650Z,78.90
2019-03-01T19:06:00.857Z,78.70
2019-03-01T19:08:30.443Z,78.30
2019-03-01T19:11:02.919Z,77.90
2019-03-01T19:13:31.080Z,78.00
2019-03-01T19:16:00.543Z,78.40
2019-03-01T19:18:30.359Z,79.00
2019-03-01T19:20:59.792Z,78.90
2019-03-01T19:23:32.310Z,78.60
2019-03-01T19:26:01.647Z,79.10
2019-03-01T19:28:31.735Z,78.10
2019-03-01T19:31:01.490Z,78.10
2019-03-01T19:33:31.382Z,78.20
2019-03-01T19:36:03.508Z,77.80
2019-03-01T19:38:32.659Z,78.70
2019-03-01T19:41:02.370Z,78.20
2019-03-01T19:43:32.147Z,77.80
2019-03-01T19:46:01.679Z,78.50
2019-03-01T19:48:34.419Z,78.40
2019-03-01T19:51:02.651Z,78.70
2019-03-01T19:53:32.228Z,78.50
2019-03-01T19:56:01.663Z,78.10
2019-03-01T19:58:31.436Z,78.00
2019-03-01T20:01:00.979Z,78.20
2019-03-01T20:03:30.494Z,78.00
2019-03-01T20:06:00.487Z,78.10
2019-03-01T20:08:30.864Z,77.90
2019-03-01T20:11:00.555Z,77.90
2019-03-01T20:13:31.267Z,78.00
2019-03-01T20:16:00.968Z,78.20
2019-03-01T20:18:30.622Z,78.30
2019-03-01T20:21:00.214Z,78.50
2019-03-01T20:23:30.757Z,80.20
2019-03-01T20:26:00.666Z,80.00
2019-03-01T20:28:30.767Z,79.90
2019-03-01T20:31:04.875Z,79.20
2019-03-01T20:33:35.939Z,79.00
2019-03-01T20:36:05.716Z,79.00
2019-03-01T20:38:37.116Z,78.90
2019-03-01T20:41:18.306Z,78.40
2019-03-01T20:43:47.880Z,79.20
2019-03-01T20:46:17.315Z,79.10
2019-03-01T20:48:47.256Z,78.60
2019-03-01T20:51:16.900Z,77.50
2019-03-01T20:53:49.457Z,77.60
2019-03-01T20:56:18.965Z,79.60
2019-03-01T20:58:48.448Z,81.70
2019-03-01T21:01:18.321Z,80.10
2019-03-01T21:03:48.271Z,80.40
2019-03-01T21:06:19.704Z,80.20
2019-03-01T21:08:48.967Z,81.00
2019-03-01T21:11:21.816Z,80.10
2019-03-01T21:13:49.941Z,79.60
2019-03-01T21:16:20.563Z,79.20
2019-03-01T21:18:52.271Z,79.10
2019-03-01T21:21:22.248Z,79.80
2019-03-01T21:23:51.826Z,79.60
2019-03-01T21:26:21.355Z,79.80
2019-03-01T21:28:51.004Z,80.20
2019-03-01T21:31:20.452Z,79.90
2019-03-01T21:33:49.955Z,80.50
2019-03-01T21:36:19.522Z,80.10
2019-03-01T21:38:49.438Z,79.50
2019-03-01T21:41:19.992Z,79.30
2019-03-01T21:43:49.730Z,79.00
2019-03-01T21:46:19.499Z,79.60
2019-03-01T21:48:49.056Z,79.90
2019-03-01T21:51:18.689Z,80.10
2019-03-01T21:53:49.664Z,81.00
2019-03-01T21:56:19.572Z,81.50
2019-03-01T21:58:49.033Z,82.60
2019-03-01T22:01:18.716Z,83.10
2019-03-01T22:03:48.324Z,84.60
2019-03-01T22:06:20.684Z,85.40
2019-03-01T22:08:49.761Z,86.20
2019-03-01T22:11:20.816Z,86.10
2019-03-01T22:13:50.718Z,87.30
2019-03-01T22:16:20.619Z,86.00
2019-03-01T22:18:50.064Z,89.10
2019-03-01T22:21:22.588Z,88.90
2019-03-01T22:23:52.571Z,89.90
2019-03-01T22:26:22.652Z,90.00
2019-03-01T22:28:52.464Z,90.00
2019-03-01T22:31:22.234Z,90.40
2019-03-01T22:33:52.513Z,90.40
2019-03-01T22:36:24.020Z,90.70
2019-03-01T22:38:53.528Z,90.30
2019-03-01T22:41:22.995Z,90.80
2019-03-01T22:43:52.470Z,90.70
2019-03-01T22:46:24.853Z,90.60
2019-03-01T22:48:56.335Z,91.10
2019-03-01T22:51:24.580Z,90.60
2019-03-01T22:54:00.247Z,91.00
2019-03-01T22:56:29.679Z,91.30
2019-03-01T22:58:59.539Z,91.40
2019-03-01T23:01:32.734Z,91.20
2019-03-01T23:04:03.128Z,91.80
2019-03-01T23:06:32.762Z,91.80
2019-03-01T23:09:03.681Z,92.30
2019-03-01T23:11:35.412Z,91.70
2019-03-01T23:14:05.337Z,93.10
2019-03-01T23:16:36.522Z,92.60
2019-03-01T23:19:06.369Z,92.30
2019-03-01T23:21:36.806Z,92.90
2019-03-01T23:24:06.347Z,92.50
2019-03-01T23:26:35.862Z,92.20
2019-03-01T23:29:05.551Z,91.90
2019-03-01T23:31:35.665Z,91.70
2019-03-01T23:34:07.004Z,91.80
2019-03-01T23:36:37.329Z,91.40
2019-03-01T23:39:07.090Z,91.10
2019-03-01T23:41:36.826Z,91.30
2019-03-01T23:44:07.750Z,91.60
2019-03-01T23:46:37.642Z,91.80
2019-03-01T23:49:07.075Z,91.80
2019-03-01T23:51:36.983Z,91.50
2019-03-01T23:54:09.051Z,91.00
2019-03-01T23:56:38.742Z,90.80
2019-03-01T23:59:08.475Z,90.70
